Архив погоды в Крестцах

Метеограмма Крестцы
Пятница, 22 Июня
Время местн. Темп Ветер Видим Явления Облачность нижн/средн/верх Атм. давл. Влжн Точка росы ВНГО R Сост. почвы Tg s
Напр Скр Прв ур.ст ур.м изм
15:00 - +16° Ю 1 10 - - - 749 754 +1.1 76% +11.7° - - - - -
12:00 - +17.2° З 5 12 - - - 748 753 +1.8 76% +12.9° - - - - -
09:00 +21.8° Ю 2 - 20 км - преимущественно облачно 746 751 -0.6 60% +13.7° 1 км 0 Влажная (без луж) +13° -
06:00 - +18.8° Ю,Ю-В 2 - - - - 746 752 -1.4 69% +13° - - - - -
03:00 - +16.9° Ю-В 2 - - - - 748 753 -0.9 76% +12.7° - - - - -
00:00 - +16.7° Ю-В 2 - - - - 750 755 -0.9 86% +14.3° - - - - -
Четверг, 21 Июня
Время местн. Темп Ветер Видим Явления Облачность нижн/средн/верх Атм. давл. Влжн Точка росы ВНГО R Сост. почвы Tg s
Напр Скр Прв ур.ст ур.м изм
21:00 +17.8° В,Ю-В 1 - 20 км - облачно с прояснениями 750 756 -1.1 83% +14.9° - 0.5 - - -
18:00 - +17.8° Ю-В 1 - - - - 752 757 -1.1 86% +15.4° - - - - -
15:00 - +15.4° Ю 1 - - - - 753 758 +0.2 84% +12.7° - - - - -
12:00 - +15.6° Ю,Ю-З 2 - - - - 752 758 -0.2 72% +10.5° - - - - -
09:00 +13.3° Ю-З 3 - 20 км - преимущественно облачно 753 758 +0.4 75% +9° 1.5 км 0 Влажная (без луж) - -
06:00 - +13.3° З 2 - - - - 752 758 +0.1 66% +7.1° - - - - -
03:00 - +13.2° З,Ю-З 2 - - - - 752 758 +0.1 63% +6.3° - - - - -
00:00 - +12.7° Ю-З 2 - - - - 752 758 +0.1 75% +8.4° - - - - -
Среда, 20 Июня
Время местн. Темп Ветер Видим Явления Облачность нижн/средн/верх Атм. давл. Влжн Точка росы ВНГО R Сост. почвы Tg s
Напр Скр Прв ур.ст ур.м изм
21:00 +14.8° Ю-З 1 - 20 км - переменная облачность 752 758 +0.2 66% +8.6° 1 км 2 - - -
18:00 - +16.3° З,С-З 3 15 - - - 752 758 +1.5 62% +8.9° - - - - -
15:00 - +19.8° З 6 16 - - - 751 756 -0.5 43% +6.8° - - - - -
12:00 - +18° З 6 13 - - - 751 757 +0.2 53% +8.4° - - - - -
09:00 +15.9° З 4 10 20 км - переменная облачность 751 756 +0.1 73% +11° 1.5 км 3 Влажная (без луж) +10° -
06:00 - +11.6° З,Ю-З 3 - - - - 751 757 +0.2 92% +10.3° - - - - -
03:00 - +11° Ю-З 3 - - - - 751 756 +0.2 94% +10° - - - - -
00:00 - +11.1° Ю-З 1 - - - - 750 756 +0.9 93% +10° - - - - -
Вторник, 19 Июня
Время местн. Темп Ветер Видим Явления Облачность нижн/средн/верх Атм. давл. Влжн Точка росы ВНГО R Сост. почвы Tg s
Напр Скр Прв ур.ст ур.м изм
21:00 +15.6° З 4 - 10 км слабый ливневый дождь облачно 750 755 -1.3 89% +13.8° 1 км 2 - - -
18:00 - +20.2° З,Ю-З 3 - - - - 751 756 -1.6 53% +10.2° - - - - -
15:00 - +20.7° З 4 - - - - 752 758 -1.4 51% +10.2° - - - - -
12:00 - +19.5° З 4 - - - - 754 759 -1.1 58% +10.9° - - - - -